Dayton International Airport

Airport
ICAO code: 
KDAY
Summary
ICAO Region: 
NAM
Territory: 
Location: 
Dayton, Ohio,
Elevation: 
1009 ft
Coordinates: 
Aerial View: 
39° 54' 7.999" N, 84° 13' 9.001" W
Airport LOS: 
Parallel Runway Operation
Airport WX: 
Cumulonimbus
Metar
Observation
KDAY 021356Z 22012KT 7SM FEW160 SCT250 09/06 A2981 RMK AO2 SLP097 T00940061
Station
Dayton, Cox Dayton International Airport
Date/Time
2021-12-02 13:56:00
Wind direction
220°
Wind speed
12 kts
Lowest cloud amount
few clouds
Temperature
9.4°C
Dew point
6.1°C
Humidity
79%
Weather condition
n/a

Description

International airport serving Dayton, Ohio. A public airport located 14 km north of the central business district of Dayton, a city in Montgomery County, Ohio, United States. Also referred to as simply Dayton International Airport.

Climatology

Humid continental climate (Köppen climate classification Dfa) - characterized by four seasons: cold, windy, snowy winters, mild springs, hot, humid summers, and crisp and relatively short autumns. Precipitation reaches its lowest in January and February and peaks in summer and latter half of spring.

Runways

Designator Length Width Surface Rops
06R/24L 2134 46 PEM Yes/Yes
18/36 2591 46 PEM Yes/Yes
06L/24R 3322 46 PEM Yes/Yes
Airport map: 
Aerial View: 

Accidents and Serious Incidents at or in the vicinity of KDAY

SKYbrary Partners:

Safety knowledge contributed by: